Flight Track Log - Related Links

Times and Time Zones

All times are in EST time to prevent confusion due to time zone crossing. See the N749SS flight status page for this flight to view local times or setup timezone preferences in your user account.

Time Position Orientation Groundspeed Altitude Reporting Facility
EST Latitude Longitude Course Direction KTS MPH feet Rate Location/Type
Fri 01:54:30 PM 32.8333 -96.8333 121° Southeast 174 200 1,500  Level Dallas / Fort Worth TRACON
Fri 01:55:13 PM 32.8167 -96.8000 121° Southeast 243 280 3,800 2,468 Climbing Dallas / Fort Worth TRACON
Fri 01:56:51 PM 32.7742 -96.6556 109° East 303 349 7,300 2,907 Climbing Fort Worth Center
Fri 01:57:54 PM 32.7661 -96.5364 95° East 338 389 11,600 3,312 Climbing Fort Worth Center
Fri 01:58:56 PM 32.7625 -96.4094 92° East 387 445 14,200 2,758 Climbing Fort Worth Center
Fri 01:59:58 PM 32.7494 -96.2544 96° East 440 506 17,300 2,710 Climbing Fort Worth Center
Fri 02:01:00 PM 32.7236 -96.1050 102° East 461 531 19,800 2,371 Climbing Fort Worth Center
Fri 02:02:02 PM 32.6978 -95.9306 100° East 496 571 22,200 2,274 Climbing Fort Worth Center
Fri 02:03:04 PM 32.6733 -95.7800 101° East 505 581 24,500 2,274 Climbing Fort Worth Center
Fri 02:04:06 PM 32.6586 -95.6119 96° East 513 590 26,900 2,129 Climbing Fort Worth Center
Fri 02:05:08 PM 32.6717 -95.4414 85° East 519 597 28,900 1,920 Climbing Fort Worth Center
Fri 02:06:11 PM 32.6850 -95.2536 85° East 532 612 30,900 1,776 Climbing Fort Worth Center
Fri 02:07:13 PM 32.6967 -95.0725 86° East 546 628 32,600 728 Climbing Fort Worth Center
Fri 02:09:04 PM 32.6325 -94.7125 102° East 601 692 33,000 139 Climbing Houston Center
Fri 02:10:06 PM 32.5378 -94.5464 124° Southeast 608 700 33,000  Level Houston Center
Fri 02:11:09 PM 32.4442 -94.3803 124° Southeast 606 697 33,000  Level Houston Center
Fri 02:12:11 PM 32.3511 -94.2122 123° Southeast 606 697 33,000 48 Level Houston Center
Fri 02:13:13 PM 32.2383 -94.0136 124° Southeast 606 697 33,100 581 Climbing Houston Center
Fri 02:14:15 PM 32.1433 -93.8472 124° Southeast 606 697 34,200 919 Climbing Houston Center
Fri 02:15:17 PM 32.0444 -93.6731 124° Southeast 607 699 35,000 384 Climbing Houston Center
Fri 02:16:20 PM 31.9417 -93.4919 124° Southeast 608 700 35,000  Level Houston Center
Fri 02:17:22 PM 31.8553 -93.3433 124° Southeast 608 700 35,000  Level Houston Center
Fri 02:18:24 PM 31.7583 -93.1753 124° Southeast 608 700 35,000  Level Houston Center
Fri 02:19:26 PM 31.6633 -93.0097 124° Southeast 609 701 35,000  Level Houston Center
Fri 02:20:29 PM 31.5667 -92.8444 124° Southeast 609 701 35,000  Level Houston Center
Fri 02:21:31 PM 31.4522 -92.6481 124° Southeast 609 701 35,000  Level Houston Center
Fri 02:22:33 PM 31.3558 -92.4839 124° Southeast 609 701 35,000  Level Houston Center
Fri 02:23:35 PM 31.2594 -92.3214 125° Southeast 609 701 35,000  Level Houston Center
Fri 02:24:37 PM 31.1631 -92.1594 125° Southeast 609 701 35,000  Level Houston Center
Fri 02:25:39 PM 31.0628 -91.9908 125° Southeast 605 696 35,000  Level Houston Center
Fri 02:26:41 PM 30.9683 -91.8319 125° Southeast 601 692 35,000  Level Houston Center
Fri 02:27:44 PM 30.8733 -91.6736 125° Southeast 601 692 35,000  Level Houston Center
Fri 02:28:46 PM 30.7592 -91.4844 125° Southeast 596 686 35,000  Level Houston Center
Fri 02:29:48 PM 30.6683 -91.3342 125° Southeast 594 684 35,000  Level Houston Center
Fri 02:30:50 PM 30.5742 -91.1786 125° Southeast 594 684 35,000  Level Houston Center
Fri 02:31:52 PM 30.4803 -91.0228 125° Southeast 593 682 35,000  Level Houston Center
Fri 02:32:55 PM 30.3864 -90.8694 125° Southeast 591 680 35,000  Level Houston Center
Fri 02:33:57 PM 30.2739 -90.6844 125° Southeast 591 680 35,000  Level Houston Center
Fri 02:34:59 PM 30.1817 -90.5292 124° Southeast 590 679 35,000  Level Houston Center
Fri 02:36:01 PM 30.0964 -90.3708 122° Southeast 589 678 35,000  Level Houston Center
Fri 02:37:03 PM 30.0089 -90.2142 123° Southeast 588 677 35,000  Level Houston Center
Fri 02:38:05 PM 29.9044 -90.0267 123° Southeast 588 677 35,000  Level Houston Center
Fri 02:39:08 PM 29.8181 -89.8706 123° Southeast 586 674 35,000  Level Houston Center
Fri 02:40:10 PM 29.7303 -89.7144 123° Southeast 586 674 35,000  Level Houston Center
Fri 02:41:12 PM 29.6417 -89.5575 123° Southeast 587 676 35,000  Level Houston Center
Fri 02:42:14 PM 29.5533 -89.4006 123° Southeast 589 678 35,000  Level Houston Center
Fri 02:43:16 PM 29.4472 -89.2139 123° Southeast 587 676 35,000  Level Houston Center
Fri 02:44:18 PM 29.3586 -89.0558 123° Southeast 586 674 35,000  Level Houston Center
Fri 02:45:21 PM 29.2672 -88.8961 123° Southeast 586 674 35,000  Level Houston Center
Fri 02:46:23 PM 29.1789 -88.7467 124° Southeast 586 674 35,000  Level Houston Center
Fri 02:47:25 PM 29.0911 -88.5914 123° Southeast 586 674 35,000  Level Houston Center
Fri 02:48:27 PM 28.9847 -88.4072 123° Southeast 581 669 35,000  Level Houston Center
Fri 02:49:29 PM 28.8953 -88.2533 124° Southeast 580 667 35,000  Level Houston Center
Fri 02:50:31 PM 28.8061 -88.1000 124° Southeast 581 669 35,000  Level Houston Center
Fri 02:51:34 PM 28.7181 -87.9478 123° Southeast 580 667 35,000  Level Houston Center
Fri 02:52:36 PM 28.6281 -87.7964 124° Southeast 572 658 35,000  Level Houston Center
Fri 02:53:38 PM 28.5394 -87.6461 124° Southeast 572 658 35,000  Level Houston Center
Fri 02:54:40 PM 28.4342 -87.4686 124° Southeast 569 655 35,000  Level Houston Center
Fri 02:55:42 PM 28.3464 -87.3217 124° Southeast 566 651 35,000  Level Houston Center
Fri 02:56:44 PM 28.2617 -87.1731 123° Southeast 566 651 35,000  Level Houston Center
Fri 02:57:37 PM 28.2106 -87.0331 112° Southeast 569 655 35,000  Level Jacksonville Center
Fri 02:58:37 PM 28.1511 -86.8681 112° Southeast 569 655 35,000  Level Jacksonville Center
Fri 02:59:37 PM 28.0894 -86.7011 113° Southeast 573 659 35,000  Level Jacksonville Center
Fri 03:00:37 PM 28.0317 -86.5392 112° Southeast 562 647 35,000  Level Jacksonville Center
Fri 03:01:37 PM 27.9672 -86.3747 114° Southeast 565 650 35,000  Level Jacksonville Center
Fri 03:02:37 PM 27.9069 -86.2058 112° Southeast 566 651 35,000  Level Jacksonville Center
Fri 03:03:37 PM 27.8444 -86.0419 113° Southeast 566 651 35,000  Level Jacksonville Center
Fri 03:04:37 PM 27.7817 -85.8783 113° Southeast 560 644 35,000  Level Jacksonville Center
Fri 03:05:37 PM 27.7203 -85.7217 114° Southeast 561 646 35,000  Level Jacksonville Center
Fri 03:06:42 PM 27.6531 -85.5311 112° Southeast 566 651 35,000  Level Miami Center
Fri 03:07:42 PM 27.5886 -85.3556 112° Southeast 572 658 35,000  Level Miami Center
Fri 03:08:42 PM 27.5081 -85.2000 120° Southeast 572 658 35,000  Level Miami Center
Fri 03:09:42 PM 27.4339 -85.0406 118° Southeast 572 658 35,000 -300 Level Miami Center
Fri 03:10:42 PM 27.3611 -84.8858 118° Southeast 566 651 34,400 -800 Descending Miami Center
Fri 03:11:42 PM 27.2822 -84.7311 120° Southeast 566 651 33,400 -1,050 Descending Miami Center
Fri 03:12:42 PM 27.2053 -84.5742 119° Southeast 566 651 32,300 -1,050 Descending Miami Center
Fri 03:13:42 PM 27.1319 -84.4203 118° Southeast 567 652 31,300 -1,000 Descending Miami Center
Fri 03:14:42 PM 27.0506 -84.2589 119° Southeast 572 658 30,300 -1,000 Descending Miami Center
Fri 03:15:42 PM 26.9772 -84.1028 118° Southeast 579 666 29,300 -1,000 Descending Miami Center
Fri 03:16:42 PM 26.8978 -83.9397 119° Southeast 584 672 28,300 -1,050 Descending Miami Center
Fri 03:17:42 PM 26.8197 -83.7817 119° Southeast 584 672 27,200 -1,100 Descending Miami Center
Fri 03:18:42 PM 26.7417 -83.6261 119° Southeast 577 664 26,100 -1,600 Descending Miami Center
Fri 03:19:42 PM 26.6669 -83.4800 120° Southeast 559 643 24,000 -2,100 Descending Miami Center
Fri 03:20:42 PM 26.5981 -83.3417 119° Southeast 534 615 21,900 -2,100 Descending Miami Center
Fri 03:21:42 PM 26.5311 -83.2081 119° Southeast 506 582 19,800 -2,100 Descending Miami Center
Fri 03:22:42 PM 26.4658 -83.0769 119° Southeast 494 568 17,700 -2,050 Descending Miami Center
Fri 03:23:42 PM 26.4022 -82.9486 119° Southeast 481 554 15,700 -2,000 Descending Miami Center
Fri 03:24:42 PM 26.3386 -82.8247 120° Southeast 467 537 13,700 -1,900 Descending Miami Center
Fri 03:25:42 PM 26.2844 -82.7156 119° Southeast 453 521 11,900 -1,650 Descending Miami Center
Fri 03:26:42 PM 26.2322 -82.6111 119° Southeast 410 472 10,400 -1,400 Descending Miami Center
Fri 03:27:42 PM 26.1897 -82.5281 120° Southeast 355 409 9,100 -1,300 Descending Miami Center
Fri 03:28:42 PM 26.1533 -82.4431 115° Southeast 327 376 7,800 -1,500 Descending Miami Center
Fri 03:29:42 PM 26.1547 -82.3531 89° East 286 329 6,100 -1,800 Descending Miami Center
Fri 03:30:42 PM 26.1556 -82.2697 89° East 291 335 4,200 -1,550 Descending Miami Center
Fri 03:31:42 PM 26.1547 -82.1819 91° East 291 335 3,000 -600 Descending Miami Center
Fri 03:32:42 PM 26.1558 -82.0917 89° East 291 335 3,000  Level Miami Center
Fri 03:33:42 PM 26.1547 -82.0036 91° East 291 335 3,000 -550 Level Miami Center
Fri 03:34:42 PM 26.1367 -81.9219 104° East 281 323 1,900 -750 Descending Miami Center
Fri 03:35:42 PM 26.1097 -81.8608 116° Southeast 216 249 1,500 -400 Descending Miami Center
Fri 03:37:00 PM 26.1500 -81.7667 79° East  Level FlightAware Approximate
Fri 03:44:00 PM 26.1524 -81.7756 79° East  Level Estimated
Fri 03:45:00 PM 26.1524 -81.7756 79° East  Level Estimated
Fri 03:46:00 PM 26.1524 -81.7756 79° East  Level Estimated

Login

Don't have an account? Register now (free) for customized features, flight alerts, and more!